createdAt,value
2023-04-15T00:00:53.353Z,500.00
2023-04-15T00:01:53.433Z,500.00
2023-04-15T00:02:53.448Z,500.00
2023-04-15T00:03:53.455Z,494.00
2023-04-15T00:04:53.370Z,496.00
2023-04-15T00:05:53.300Z,497.00
2023-04-15T00:06:53.302Z,500.00
2023-04-15T00:07:53.298Z,501.00
2023-04-15T00:08:53.290Z,500.00
2023-04-15T00:09:53.274Z,500.00
2023-04-15T00:10:53.297Z,499.00
2023-04-15T00:11:53.268Z,500.00
2023-04-15T00:12:53.257Z,503.00
2023-04-15T00:13:53.247Z,500.00
2023-04-15T00:14:53.233Z,500.00
2023-04-15T00:15:53.219Z,504.00
2023-04-15T00:16:53.264Z,498.00
2023-04-15T00:17:53.234Z,500.00
2023-04-15T00:18:53.206Z,504.00
2023-04-15T00:19:53.180Z,502.00
2023-04-15T00:20:53.173Z,500.00
2023-04-15T00:21:53.180Z,503.00
2023-04-15T00:22:53.187Z,501.00
2023-04-15T00:23:53.173Z,504.00
2023-04-15T00:24:53.162Z,507.00
2023-04-15T00:25:53.160Z,503.00
2023-04-15T00:26:53.173Z,500.00
2023-04-15T00:27:53.142Z,501.00
2023-04-15T00:28:53.137Z,501.00
2023-04-15T00:29:53.143Z,501.00
2023-04-15T00:30:53.271Z,504.00
2023-04-15T00:31:53.115Z,501.00
2023-04-15T00:32:53.147Z,502.00
2023-04-15T00:33:53.105Z,504.00
2023-04-15T00:34:53.116Z,506.00
2023-04-15T00:35:53.079Z,498.00
2023-04-15T00:36:53.085Z,506.00
2023-04-15T00:37:53.071Z,501.00
2023-04-15T00:38:53.066Z,506.00
2023-04-15T00:39:53.063Z,502.00
2023-04-15T00:40:53.059Z,501.00
2023-04-15T00:41:53.057Z,503.00
2023-04-15T00:42:53.081Z,508.00
2023-04-15T00:43:53.045Z,501.00
2023-04-15T00:44:53.038Z,505.00
2023-04-15T00:45:53.087Z,501.00
2023-04-15T00:46:53.052Z,507.00
2023-04-15T00:47:53.105Z,504.00
2023-04-15T00:48:53.047Z,506.00
2023-04-15T00:49:53.034Z,503.00
2023-04-15T00:50:53.010Z,506.00
2023-04-15T00:51:53.005Z,505.00
2023-04-15T00:52:52.999Z,506.00
2023-04-15T00:53:52.999Z,509.00
2023-04-15T00:54:52.983Z,508.00
2023-04-15T00:55:52.989Z,507.00
2023-04-15T00:56:52.997Z,506.00
2023-04-15T00:57:53.031Z,502.00
2023-04-15T00:58:53.073Z,504.00
2023-04-15T00:59:53.080Z,500.00
2023-04-15T01:00:53.106Z,503.00
2023-04-15T01:01:53.200Z,504.00
2023-04-15T01:02:53.271Z,502.00
2023-04-15T01:03:53.280Z,503.00
2023-04-15T01:04:53.191Z,502.00
2023-04-15T01:05:53.216Z,504.00
2023-04-15T01:06:53.240Z,500.00
2023-04-15T01:07:53.270Z,504.00
2023-04-15T01:08:53.287Z,503.00
2023-04-15T01:09:53.297Z,503.00
2023-04-15T01:10:53.316Z,510.00
2023-04-15T01:11:53.334Z,509.00
2023-04-15T01:12:53.357Z,509.00
2023-04-15T01:13:53.382Z,506.00
2023-04-15T01:14:53.433Z,504.00
2023-04-15T01:15:53.467Z,508.00
2023-04-15T01:16:53.445Z,508.00
2023-04-15T01:17:53.495Z,504.00
2023-04-15T01:18:53.491Z,503.00
2023-04-15T01:19:53.503Z,508.00
2023-04-15T01:20:53.533Z,507.00
2023-04-15T01:21:53.546Z,510.00
2023-04-15T01:22:53.566Z,505.00
2023-04-15T01:23:53.585Z,511.00
2023-04-15T01:24:53.599Z,507.00
2023-04-15T01:25:53.612Z,508.00
2023-04-15T01:26:53.637Z,506.00
2023-04-15T01:27:53.661Z,504.00
2023-04-15T01:28:53.678Z,504.00
2023-04-15T01:29:53.705Z,508.00
2023-04-15T01:30:53.744Z,508.00
2023-04-15T01:31:53.823Z,509.00
2023-04-15T01:32:53.773Z,507.00
2023-04-15T01:33:53.801Z,510.00
2023-04-15T01:34:53.806Z,511.00
2023-04-15T01:35:53.824Z,509.00
2023-04-15T01:36:53.847Z,505.00
2023-04-15T01:37:53.875Z,506.00
2023-04-15T01:38:53.888Z,506.00
2023-04-15T01:39:53.913Z,512.00
2023-04-15T01:40:53.926Z,503.00
2023-04-15T01:41:53.942Z,506.00
2023-04-15T01:42:53.962Z,503.00
2023-04-15T01:43:53.986Z,505.00
2023-04-15T01:44:54.008Z,504.00
2023-04-15T01:45:54.036Z,508.00
2023-04-15T01:46:54.109Z,509.00
2023-04-15T01:47:54.134Z,506.00
2023-04-15T01:48:54.150Z,507.00
2023-04-15T01:49:54.125Z,502.00
2023-04-15T01:50:54.153Z,506.00
2023-04-15T01:51:54.205Z,506.00
2023-04-15T01:52:54.203Z,505.00
2023-04-15T01:53:54.221Z,505.00
2023-04-15T01:54:54.248Z,502.00
2023-04-15T01:55:54.268Z,501.00
2023-04-15T01:56:54.296Z,507.00
2023-04-15T01:57:54.329Z,504.00
2023-04-15T01:58:54.362Z,507.00
2023-04-15T01:59:54.382Z,507.00
2023-04-15T02:00:54.428Z,505.00
2023-04-15T02:01:54.458Z,508.00
2023-04-15T02:02:54.505Z,508.00
2023-04-15T02:03:54.522Z,510.00
2023-04-15T02:04:54.509Z,506.00
2023-04-15T02:05:54.529Z,505.00
2023-04-15T02:06:54.561Z,505.00
2023-04-15T02:07:54.576Z,509.00
2023-04-15T02:08:54.598Z,505.00
2023-04-15T02:09:54.612Z,500.00
2023-04-15T02:10:54.629Z,503.00
2023-04-15T02:11:54.662Z,507.00
2023-04-15T02:12:54.685Z,505.00
2023-04-15T02:13:54.753Z,504.00
2023-04-15T02:14:54.730Z,510.00
2023-04-15T02:15:54.755Z,507.00
2023-04-15T02:16:54.848Z,509.00
2023-04-15T02:17:54.833Z,501.00
2023-04-15T02:18:54.850Z,508.00
2023-04-15T02:19:54.846Z,510.00
2023-04-15T02:20:54.872Z,509.00
2023-04-15T02:21:54.906Z,505.00
2023-04-15T02:22:54.935Z,512.00
2023-04-15T02:23:54.958Z,511.00
2023-04-15T02:24:54.982Z,509.00
2023-04-15T02:25:55.008Z,510.00
2023-04-15T02:26:55.029Z,509.00
2023-04-15T02:27:55.048Z,502.00
2023-04-15T02:28:55.069Z,507.00
2023-04-15T02:29:55.105Z,506.00
2023-04-15T02:30:55.112Z,507.00
2023-04-15T02:31:55.194Z,510.00
2023-04-15T02:32:55.217Z,509.00
2023-04-15T02:33:55.165Z,508.00
2023-04-15T02:34:55.215Z,504.00
2023-04-15T02:35:55.211Z,508.00
2023-04-15T02:36:55.237Z,503.00
2023-04-15T02:37:55.257Z,505.00
2023-04-15T02:38:55.275Z,507.00
2023-04-15T02:39:55.304Z,509.00
2023-04-15T02:40:55.323Z,510.00
2023-04-15T02:41:55.369Z,510.00
2023-04-15T02:42:55.381Z,506.00
2023-04-15T02:43:55.405Z,503.00
2023-04-15T02:44:55.433Z,509.00
2023-04-15T02:45:55.492Z,507.00
2023-04-15T02:46:55.480Z,509.00
2023-04-15T02:47:55.530Z,506.00
2023-04-15T02:48:55.525Z,506.00
2023-04-15T02:49:55.560Z,507.00
2023-04-15T02:50:55.599Z,505.00
2023-04-15T02:51:55.604Z,511.00
2023-04-15T02:52:55.727Z,511.00
2023-04-15T02:53:55.670Z,506.00
2023-04-15T02:54:55.701Z,511.00
2023-04-15T02:55:55.732Z,511.00
2023-04-15T02:56:55.755Z,509.00
2023-04-15T02:57:56.057Z,510.00
2023-04-15T02:58:55.816Z,507.00
2023-04-15T02:59:55.852Z,510.00
2023-04-15T03:00:55.898Z,511.00
2023-04-15T03:01:55.994Z,510.00
2023-04-15T03:02:56.033Z,512.00
2023-04-15T03:03:56.076Z,512.00
2023-04-15T03:04:55.971Z,510.00
2023-04-15T03:05:55.990Z,508.00
2023-04-15T03:06:56.075Z,513.00
2023-04-15T03:07:56.039Z,511.00
2023-04-15T03:08:56.068Z,512.00
2023-04-15T03:09:56.087Z,511.00
2023-04-15T03:10:56.103Z,515.00
2023-04-15T03:11:56.119Z,514.00
2023-04-15T03:12:56.132Z,512.00
2023-04-15T03:13:56.142Z,510.00
2023-04-15T03:14:56.160Z,508.00
2023-04-15T03:15:56.258Z,513.00
2023-04-15T03:16:56.169Z,509.00
2023-04-15T03:17:56.288Z,512.00
2023-04-15T03:18:56.202Z,511.00
2023-04-15T03:19:56.277Z,508.00
2023-04-15T03:20:56.226Z,508.00
2023-04-15T03:21:56.248Z,512.00
2023-04-15T03:22:56.271Z,508.00
2023-04-15T03:23:56.272Z,513.00
2023-04-15T03:24:56.276Z,508.00
2023-04-15T03:25:56.298Z,512.00
2023-04-15T03:26:56.298Z,508.00
2023-04-15T03:27:56.313Z,509.00
2023-04-15T03:28:56.325Z,504.00
2023-04-15T03:29:56.340Z,509.00
2023-04-15T03:30:56.373Z,503.00
2023-04-15T03:31:56.350Z,507.00
2023-04-15T03:32:56.464Z,505.00
2023-04-15T03:33:56.384Z,511.00
2023-04-15T03:34:56.398Z,509.00
2023-04-15T03:35:56.406Z,507.00
2023-04-15T03:36:56.419Z,509.00
2023-04-15T03:37:56.422Z,508.00
2023-04-15T03:38:56.464Z,509.00
2023-04-15T03:39:56.486Z,511.00
2023-04-15T03:40:56.462Z,509.00
2023-04-15T03:41:56.485Z,511.00
2023-04-15T03:42:56.513Z,507.00
2023-04-15T03:43:56.514Z,513.00
2023-04-15T03:44:56.537Z,506.00
2023-04-15T03:45:56.556Z,512.00
2023-04-15T03:46:56.592Z,510.00
2023-04-15T03:47:58.614Z,513.00
2023-04-15T03:48:56.552Z,514.00
2023-04-15T03:49:56.551Z,515.00
2023-04-15T03:50:56.554Z,516.00
2023-04-15T03:51:56.557Z,516.00
2023-04-15T03:52:56.555Z,517.00
2023-04-15T03:53:56.562Z,517.00
2023-04-15T03:54:56.592Z,514.00
2023-04-15T03:55:56.572Z,515.00
2023-04-15T03:56:56.571Z,513.00
2023-04-15T03:57:56.572Z,515.00
2023-04-15T03:58:56.617Z,517.00
2023-04-15T03:59:56.549Z,514.00
2023-04-15T04:00:56.541Z,512.00
2023-04-15T04:01:56.622Z,509.00
2023-04-15T04:02:56.722Z,515.00
2023-04-15T04:03:56.738Z,517.00
2023-04-15T04:04:56.530Z,514.00
2023-04-15T04:05:56.520Z,511.00
2023-04-15T04:06:56.502Z,513.00
2023-04-15T04:07:56.496Z,514.00
2023-04-15T04:08:56.499Z,515.00
2023-04-15T04:09:56.493Z,517.00
2023-04-15T04:10:56.520Z,514.00
2023-04-15T04:11:56.493Z,512.00
2023-04-15T04:12:56.490Z,516.00
2023-04-15T04:13:56.499Z,510.00
2023-04-15T04:14:56.487Z,516.00
2023-04-15T04:15:56.510Z,517.00
2023-04-15T04:16:56.494Z,513.00
2023-04-15T04:17:56.609Z,513.00
2023-04-15T04:18:56.483Z,517.00
2023-04-15T04:19:56.488Z,514.00
2023-04-15T04:20:56.486Z,516.00
2023-04-15T04:21:56.491Z,515.00
2023-04-15T04:22:56.489Z,514.00
2023-04-15T04:23:56.488Z,510.00
2023-04-15T04:24:56.493Z,516.00
2023-04-15T04:25:56.499Z,518.00
2023-04-15T04:26:56.516Z,516.00
2023-04-15T04:27:56.490Z,515.00
2023-04-15T04:28:56.477Z,516.00
2023-04-15T04:29:56.461Z,512.00
2023-04-15T04:30:56.481Z,518.00
2023-04-15T04:31:56.491Z,514.00
2023-04-15T04:32:56.493Z,514.00
2023-04-15T04:33:56.443Z,511.00
2023-04-15T04:34:56.448Z,514.00
2023-04-15T04:35:56.433Z,513.00
2023-04-15T04:36:56.447Z,511.00
2023-04-15T04:37:56.431Z,514.00
2023-04-15T04:38:56.454Z,515.00
2023-04-15T04:39:56.426Z,518.00
2023-04-15T04:40:56.424Z,514.00
2023-04-15T04:41:56.417Z,515.00
2023-04-15T04:42:56.433Z,516.00
2023-04-15T04:43:56.397Z,514.00
2023-04-15T04:44:56.392Z,512.00
2023-04-15T04:45:56.403Z,507.00
2023-04-15T04:46:56.380Z,513.00
2023-04-15T04:47:56.436Z,512.00
2023-04-15T04:48:56.366Z,506.00
2023-04-15T04:49:56.385Z,510.00
2023-04-15T04:50:56.368Z,511.00
2023-04-15T04:51:56.364Z,511.00
2023-04-15T04:52:56.355Z,513.00
2023-04-15T04:53:56.348Z,512.00
2023-04-15T04:54:56.349Z,511.00
2023-04-15T04:55:56.366Z,510.00
2023-04-15T04:56:56.344Z,509.00
2023-04-15T04:57:56.334Z,510.00
2023-04-15T04:58:56.363Z,511.00
2023-04-15T04:59:56.333Z,507.00
2023-04-15T05:00:56.325Z,508.00
2023-04-15T05:01:56.360Z,508.00
2023-04-15T05:02:56.395Z,510.00
2023-04-15T05:03:56.554Z,508.00
2023-04-15T05:04:56.313Z,505.00
2023-04-15T05:05:56.349Z,505.00
2023-04-15T05:06:56.405Z,512.00
2023-04-15T05:07:56.371Z,507.00
2023-04-15T05:08:56.373Z,510.00
2023-04-15T05:09:56.408Z,506.00
2023-04-15T05:10:56.418Z,505.00
2023-04-15T05:11:56.432Z,505.00
2023-04-15T05:12:56.435Z,507.00
2023-04-15T05:13:56.452Z,504.00
2023-04-15T05:14:56.487Z,507.00
2023-04-15T05:15:56.513Z,505.00
2023-04-15T05:16:56.498Z,505.00
2023-04-15T05:17:56.591Z,508.00
2023-04-15T05:18:56.528Z,507.00
2023-04-15T05:19:56.550Z,507.00
2023-04-15T05:20:56.566Z,506.00
2023-04-15T05:21:56.567Z,504.00
2023-04-15T05:22:56.591Z,511.00
2023-04-15T05:23:56.596Z,501.00
2023-04-15T05:24:56.652Z,502.00
2023-04-15T05:25:56.621Z,512.00
2023-04-15T05:26:56.648Z,504.00
2023-04-15T05:27:56.660Z,508.00
2023-04-15T05:28:56.697Z,507.00
2023-04-15T05:29:56.707Z,510.00
2023-04-15T05:30:56.781Z,507.00
2023-04-15T05:31:56.735Z,507.00
2023-04-15T05:32:56.784Z,506.00
2023-04-15T05:33:56.772Z,508.00
2023-04-15T05:34:56.785Z,510.00
2023-04-15T05:35:56.815Z,509.00
2023-04-15T05:36:56.821Z,509.00
2023-04-15T05:37:56.838Z,500.00
2023-04-15T05:38:56.857Z,510.00
2023-04-15T05:39:56.877Z,508.00
2023-04-15T05:40:56.901Z,507.00
2023-04-15T05:41:56.914Z,508.00
2023-04-15T05:42:56.924Z,510.00
2023-04-15T05:43:56.950Z,509.00
2023-04-15T05:44:56.964Z,507.00
2023-04-15T05:45:57.021Z,504.00
2023-04-15T05:46:57.467Z,510.00
2023-04-15T05:47:57.052Z,508.00
2023-04-15T05:48:57.013Z,510.00
2023-04-15T05:49:57.042Z,512.00
2023-04-15T05:50:57.069Z,508.00
2023-04-15T05:51:57.444Z,507.00
2023-04-15T05:52:57.082Z,508.00
2023-04-15T05:53:57.092Z,509.00
2023-04-15T05:54:57.124Z,480.00
2023-04-15T05:55:57.168Z,500.00
2023-04-15T05:56:57.208Z,507.00
2023-04-15T05:57:57.267Z,534.00
2023-04-15T05:58:57.346Z,555.00
2023-04-15T05:59:57.446Z,594.00
2023-04-15T06:00:57.479Z,605.00
2023-04-15T06:01:57.584Z,604.00
2023-04-15T06:02:57.817Z,610.00
2023-04-15T06:03:57.897Z,602.00
2023-04-15T06:04:57.857Z,601.00
2023-04-15T06:05:57.848Z,624.00
2023-04-15T06:06:57.907Z,622.00
2023-04-15T06:07:57.974Z,647.00
2023-04-15T06:08:58.047Z,639.00
2023-04-15T06:09:58.089Z,639.00
2023-04-15T06:10:58.105Z,638.00
2023-04-15T06:11:58.139Z,637.00
2023-04-15T06:12:58.158Z,639.00
2023-04-15T06:13:58.238Z,644.00
2023-04-15T06:15:00.008Z,650.00
2023-04-15T06:15:58.344Z,657.00
2023-04-15T06:16:58.318Z,666.00
2023-04-15T06:17:58.353Z,681.00
2023-04-15T06:18:58.351Z,703.00
2023-04-15T06:19:58.331Z,716.00
2023-04-15T06:20:58.323Z,730.00
2023-04-15T06:21:58.314Z,747.00
2023-04-15T06:22:58.305Z,759.00
2023-04-15T06:23:58.311Z,784.00
2023-04-15T06:24:58.314Z,800.00
2023-04-15T06:25:58.317Z,796.00
2023-04-15T06:26:58.329Z,817.00
2023-04-15T06:27:58.318Z,833.00
2023-04-15T06:28:58.344Z,865.00
2023-04-15T06:29:58.292Z,867.00
2023-04-15T06:30:58.290Z,906.00
2023-04-15T06:31:58.343Z,915.00
2023-04-15T06:32:58.313Z,925.00
2023-04-15T06:33:58.271Z,951.00
2023-04-15T06:34:58.300Z,955.00
2023-04-15T06:35:58.276Z,984.00
2023-04-15T06:36:58.275Z,990.00
2023-04-15T06:37:58.282Z,1023.00
2023-04-15T06:38:58.258Z,1027.00
2023-04-15T06:39:58.245Z,1032.00
2023-04-15T06:40:58.233Z,1060.00
2023-04-15T06:41:58.240Z,1074.00
2023-04-15T06:42:58.243Z,1089.00
2023-04-15T06:43:58.271Z,1083.00
2023-04-15T06:44:58.231Z,1108.00
2023-04-15T06:45:58.338Z,1121.00
2023-04-15T06:46:58.202Z,1143.00
2023-04-15T06:47:58.223Z,1198.00
2023-04-15T06:48:58.188Z,1223.00
2023-04-15T06:49:58.217Z,1224.00
2023-04-15T06:50:58.320Z,1235.00
2023-04-15T06:51:58.304Z,1240.00
2023-04-15T06:52:58.344Z,1244.00
2023-04-15T06:53:58.394Z,1269.00
2023-04-15T06:54:58.432Z,1283.00
2023-04-15T06:55:58.467Z,1278.00
2023-04-15T06:56:58.509Z,1276.00
2023-04-15T06:57:58.551Z,1289.00
2023-04-15T06:58:58.658Z,1298.00
2023-04-15T06:59:58.634Z,1294.00
2023-04-15T07:00:58.721Z,1299.00
2023-04-15T07:01:58.749Z,1319.00
2023-04-15T07:02:58.769Z,1322.00
2023-04-15T07:03:58.796Z,1338.00
2023-04-15T07:04:58.811Z,1352.00
2023-04-15T07:05:58.844Z,1363.00
2023-04-15T07:06:58.922Z,1281.00
2023-04-15T07:07:58.930Z,1261.00
2023-04-15T07:08:58.985Z,1113.00
2023-04-15T07:09:59.051Z,1108.00
2023-04-15T07:10:59.113Z,918.00
2023-04-15T07:11:59.202Z,993.00
2023-04-15T07:12:59.228Z,872.00
2023-04-15T07:13:59.231Z,848.00
2023-04-15T07:14:59.236Z,790.00
2023-04-15T07:15:59.258Z,667.00
2023-04-15T07:16:59.318Z,638.00
2023-04-15T07:17:59.378Z,527.00
2023-04-15T07:18:59.609Z,459.00
2023-04-15T07:19:59.447Z,454.00
2023-04-15T07:20:59.500Z,459.00
2023-04-15T07:21:59.569Z,464.00
2023-04-15T07:22:59.676Z,496.00
2023-04-15T07:23:59.726Z,507.00
2023-04-15T07:24:59.779Z,498.00
2023-04-15T07:25:59.878Z,504.00
2023-04-15T07:27:01.258Z,519.00
2023-04-15T07:28:00.062Z,523.00
2023-04-15T07:29:00.432Z,536.00
2023-04-15T07:30:00.214Z,535.00
2023-04-15T07:31:00.314Z,529.00
2023-04-15T07:32:00.372Z,532.00
2023-04-15T07:33:00.474Z,543.00
2023-04-15T07:34:00.488Z,526.00
2023-04-15T07:35:00.541Z,524.00
2023-04-15T07:36:00.608Z,507.00
2023-04-15T07:37:00.704Z,533.00
2023-04-15T07:38:00.775Z,573.00
2023-04-15T07:39:01.182Z,596.00
2023-04-15T07:40:00.915Z,642.00
2023-04-15T07:41:00.959Z,666.00
2023-04-15T07:42:00.998Z,725.00
2023-04-15T07:43:01.013Z,768.00
2023-04-15T07:44:01.056Z,795.00
2023-04-15T07:45:01.114Z,830.00
2023-04-15T07:46:01.246Z,870.00
2023-04-15T07:47:01.259Z,902.00
2023-04-15T07:48:01.378Z,936.00
2023-04-15T07:49:01.780Z,978.00
2023-04-15T07:50:01.401Z,990.00
2023-04-15T07:51:01.441Z,1013.00
2023-04-15T07:52:01.466Z,1005.00
2023-04-15T07:53:01.491Z,1027.00
2023-04-15T07:54:01.503Z,1061.00
2023-04-15T07:55:01.537Z,1111.00
2023-04-15T07:56:01.535Z,1111.00
2023-04-15T07:57:01.581Z,1125.00
2023-04-15T07:58:01.550Z,1142.00
2023-04-15T07:59:01.839Z,1182.00
2023-04-15T08:00:01.586Z,1211.00
2023-04-15T08:01:01.575Z,1229.00
2023-04-15T08:02:01.666Z,1260.00
2023-04-15T08:03:01.949Z,1285.00
2023-04-15T08:04:01.783Z,1304.00
2023-04-15T08:05:01.808Z,1297.00
2023-04-15T08:06:01.861Z,1311.00
2023-04-15T08:07:01.879Z,1343.00
2023-04-15T08:08:01.906Z,1358.00
2023-04-15T08:09:02.236Z,1368.00
2023-04-15T08:10:02.136Z,1386.00
2023-04-15T08:11:02.144Z,1424.00
2023-04-15T08:12:02.221Z,1439.00
2023-04-15T08:13:02.539Z,1476.00
2023-04-15T08:14:02.312Z,1478.00
2023-04-15T08:15:02.334Z,1489.00
2023-04-15T08:16:02.429Z,1521.00
2023-04-15T08:17:02.506Z,1546.00
2023-04-15T08:18:02.488Z,1561.00
2023-04-15T08:19:02.836Z,1601.00
2023-04-15T08:20:02.595Z,1620.00
2023-04-15T08:21:02.673Z,1627.00
2023-04-15T08:22:02.701Z,1666.00
2023-04-15T08:23:02.765Z,1692.00
2023-04-15T08:24:02.806Z,1681.00
2023-04-15T08:25:02.868Z,1699.00
2023-04-15T08:26:03.070Z,1707.00
2023-04-15T08:27:02.995Z,1241.00
2023-04-15T08:28:03.002Z,953.00
2023-04-15T08:29:03.241Z,983.00
2023-04-15T08:30:04.969Z,1054.00
2023-04-15T08:31:03.044Z,1135.00
2023-04-15T08:32:03.045Z,1196.00
2023-04-15T08:33:03.044Z,1252.00
2023-04-15T08:34:03.041Z,1322.00
2023-04-15T08:35:03.086Z,1382.00
2023-04-15T08:36:03.034Z,1393.00
2023-04-15T08:37:03.037Z,1405.00
2023-04-15T08:38:03.020Z,1447.00
2023-04-15T08:39:03.375Z,1480.00
2023-04-15T08:40:03.016Z,1478.00
2023-04-15T08:41:03.022Z,1492.00
2023-04-15T08:42:03.018Z,1526.00
2023-04-15T08:43:03.038Z,1539.00
2023-04-15T08:44:03.010Z,1542.00
2023-04-15T08:45:03.042Z,1545.00
2023-04-15T08:46:02.990Z,1552.00
2023-04-15T08:47:03.159Z,1570.00
2023-04-15T08:48:03.022Z,1578.00
2023-04-15T08:49:03.148Z,1584.00
2023-04-15T08:50:02.968Z,1569.00
2023-04-15T08:51:02.956Z,1546.00
2023-04-15T08:52:02.939Z,1564.00
2023-04-15T08:53:02.948Z,1568.00
2023-04-15T08:54:03.517Z,1587.00
2023-04-15T08:55:02.932Z,1609.00
2023-04-15T08:56:02.936Z,1617.00
2023-04-15T08:57:02.924Z,1628.00
2023-04-15T08:58:02.916Z,1629.00
2023-04-15T08:59:03.166Z,1640.00
2023-04-15T09:00:05.209Z,1655.00
2023-04-15T09:01:03.044Z,1683.00
2023-04-15T09:02:03.007Z,1686.00
2023-04-15T09:03:03.033Z,1703.00
2023-04-15T09:04:03.017Z,1704.00
2023-04-15T09:05:02.944Z,1723.00
2023-04-15T09:06:02.925Z,1730.00
2023-04-15T09:07:02.922Z,1718.00
2023-04-15T09:08:02.932Z,1722.00
2023-04-15T09:09:03.293Z,1762.00
2023-04-15T09:10:02.871Z,1771.00
2023-04-15T09:11:02.865Z,1768.00
2023-04-15T09:12:02.865Z,1795.00
2023-04-15T09:13:02.863Z,1794.00
2023-04-15T09:14:02.842Z,1792.00
2023-04-15T09:15:02.872Z,1800.00
2023-04-15T09:16:02.838Z,1803.00
2023-04-15T09:17:02.850Z,1815.00
2023-04-15T09:18:02.912Z,1816.00
2023-04-15T09:19:02.930Z,1850.00
2023-04-15T09:20:02.784Z,1860.00
2023-04-15T09:21:02.769Z,1849.00
2023-04-15T09:22:02.769Z,1880.00
2023-04-15T09:23:02.756Z,1879.00
2023-04-15T09:24:02.967Z,1882.00
2023-04-15T09:25:02.717Z,1910.00
2023-04-15T09:26:02.699Z,1910.00
2023-04-15T09:27:02.684Z,1916.00
2023-04-15T09:28:02.687Z,1914.00
2023-04-15T09:29:02.689Z,1933.00
2023-04-15T09:30:02.700Z,1941.00
2023-04-15T09:31:02.815Z,1971.00
2023-04-15T09:32:02.768Z,1962.00
2023-04-15T09:33:02.826Z,1977.00
2023-04-15T09:34:02.960Z,1987.00
2023-04-15T09:35:02.856Z,1986.00
2023-04-15T09:36:02.893Z,2000.00
2023-04-15T09:37:03.212Z,2001.00
2023-04-15T09:38:02.954Z,2025.00
2023-04-15T09:39:02.976Z,2040.00
2023-04-15T09:40:03.009Z,2024.00
2023-04-15T09:41:03.038Z,1465.00
2023-04-15T09:42:03.098Z,1107.00
2023-04-15T09:43:03.149Z,878.00
2023-04-15T09:44:03.421Z,746.00
2023-04-15T09:45:03.231Z,643.00
2023-04-15T09:46:03.328Z,626.00
2023-04-15T09:47:03.327Z,623.00
2023-04-15T09:48:03.355Z,554.00
2023-04-15T09:49:03.345Z,514.00
2023-04-15T09:50:03.364Z,547.00
2023-04-15T09:51:03.348Z,519.00
2023-04-15T09:52:06.064Z,500.00
2023-04-15T09:53:03.353Z,482.00
2023-04-15T09:54:03.533Z,437.00
2023-04-15T09:55:03.352Z,425.00
2023-04-15T09:56:03.358Z,486.00
2023-04-15T09:57:03.329Z,518.00
2023-04-15T09:58:03.323Z,588.00
2023-04-15T09:59:03.326Z,631.00
2023-04-15T10:00:03.331Z,692.00
2023-04-15T10:01:03.339Z,796.00
2023-04-15T10:02:03.346Z,848.00
2023-04-15T10:03:03.438Z,887.00
2023-04-15T10:04:03.682Z,909.00
2023-04-15T10:05:03.307Z,923.00
2023-04-15T10:06:03.332Z,958.00
2023-04-15T10:07:03.363Z,1000.00
2023-04-15T10:08:03.316Z,1037.00
2023-04-15T10:09:03.325Z,1087.00
2023-04-15T10:10:03.307Z,1126.00
2023-04-15T10:11:03.305Z,1174.00
2023-04-15T10:12:03.286Z,1163.00
2023-04-15T10:13:03.291Z,1185.00
2023-04-15T10:14:03.583Z,1221.00
2023-04-15T10:15:03.281Z,1247.00
2023-04-15T10:16:03.313Z,1226.00
2023-04-15T10:17:03.282Z,1259.00
2023-04-15T10:18:03.337Z,1293.00
2023-04-15T10:19:03.304Z,1311.00
2023-04-15T10:20:03.286Z,1318.00
2023-04-15T10:21:03.351Z,1318.00
2023-04-15T10:22:03.395Z,1332.00
2023-04-15T10:23:03.427Z,1351.00
2023-04-15T10:24:03.727Z,1349.00
2023-04-15T10:25:03.519Z,1359.00
2023-04-15T10:26:03.544Z,1383.00
2023-04-15T10:27:03.591Z,1400.00
2023-04-15T10:28:03.638Z,1419.00
2023-04-15T10:29:03.677Z,1445.00
2023-04-15T10:30:03.720Z,1440.00
2023-04-15T10:31:03.792Z,1459.00
2023-04-15T10:32:03.789Z,1481.00
2023-04-15T10:33:03.826Z,1499.00
2023-04-15T10:34:04.201Z,1496.00
2023-04-15T10:35:03.939Z,1525.00
2023-04-15T10:36:03.964Z,1539.00
2023-04-15T10:37:04.013Z,1570.00
2023-04-15T10:38:04.051Z,1602.00
2023-04-15T10:39:04.074Z,1594.00
2023-04-15T10:40:04.132Z,1600.00
2023-04-15T10:41:04.147Z,1615.00
2023-04-15T10:42:04.193Z,1652.00
2023-04-15T10:43:04.236Z,1648.00
2023-04-15T10:44:04.679Z,1664.00
2023-04-15T10:45:04.295Z,1689.00
2023-04-15T10:46:04.377Z,1708.00
2023-04-15T10:47:04.384Z,1716.00
2023-04-15T10:48:04.461Z,1743.00
2023-04-15T10:49:04.434Z,1752.00
2023-04-15T10:50:04.468Z,1753.00
2023-04-15T10:51:04.515Z,1790.00
2023-04-15T10:52:04.520Z,1777.00
2023-04-15T10:53:04.554Z,1779.00
2023-04-15T10:54:04.709Z,1787.00
2023-04-15T10:55:04.618Z,1779.00
2023-04-15T10:56:04.656Z,1764.00
2023-04-15T10:57:04.687Z,1721.00
2023-04-15T10:58:04.715Z,1708.00
2023-04-15T10:59:04.759Z,1693.00
2023-04-15T11:00:05.056Z,1674.00
2023-04-15T11:01:04.830Z,1675.00
2023-04-15T11:02:04.988Z,1671.00
2023-04-15T11:03:04.972Z,1636.00
2023-04-15T11:04:05.175Z,1602.00
2023-04-15T11:05:04.992Z,1584.00
2023-04-15T11:06:05.053Z,1575.00
2023-04-15T11:07:05.114Z,1565.00
2023-04-15T11:08:05.165Z,1551.00
2023-04-15T11:09:05.197Z,1543.00
2023-04-15T11:10:05.247Z,1539.00
2023-04-15T11:11:05.298Z,1536.00
2023-04-15T11:12:05.364Z,1562.00
2023-04-15T11:13:05.412Z,1572.00
2023-04-15T11:14:05.478Z,1565.00
2023-04-15T11:15:05.560Z,1557.00
2023-04-15T11:16:05.620Z,1559.00
2023-04-15T11:17:05.645Z,1557.00
2023-04-15T11:18:05.712Z,1560.00
2023-04-15T11:19:05.729Z,1531.00
2023-04-15T11:20:05.789Z,1531.00
2023-04-15T11:21:05.840Z,1547.00
2023-04-15T11:22:05.888Z,1542.00
2023-04-15T11:23:13.396Z,1537.00
2023-04-15T11:24:06.200Z,1539.00
2023-04-15T11:25:05.937Z,1539.00
2023-04-15T11:26:05.938Z,1540.00
2023-04-15T11:27:05.931Z,1551.00
2023-04-15T11:28:05.927Z,1553.00
2023-04-15T11:29:06.069Z,1565.00
2023-04-15T11:30:05.934Z,1559.00
2023-04-15T11:31:05.940Z,1558.00
2023-04-15T11:32:05.981Z,1555.00
2023-04-15T11:33:05.901Z,1570.00
2023-04-15T11:34:06.031Z,1558.00
2023-04-15T11:35:05.894Z,1565.00
2023-04-15T11:36:05.887Z,1552.00
2023-04-15T11:37:05.874Z,1571.00
2023-04-15T11:38:05.879Z,1573.00
2023-04-15T11:39:05.893Z,1574.00
2023-04-15T11:40:05.875Z,1556.00
2023-04-15T11:41:05.877Z,1554.00
2023-04-15T11:42:05.934Z,1560.00
2023-04-15T11:43:05.990Z,1574.00
2023-04-15T11:44:06.059Z,1553.00
2023-04-15T11:45:06.131Z,1552.00
2023-04-15T11:46:06.216Z,1569.00
2023-04-15T11:47:06.240Z,1559.00
2023-04-15T11:48:06.297Z,1558.00
2023-04-15T11:49:06.431Z,1564.00
2023-04-15T11:50:06.417Z,1559.00
2023-04-15T11:51:06.493Z,1559.00
2023-04-15T11:52:06.530Z,1549.00
2023-04-15T11:53:08.514Z,1561.00
2023-04-15T11:54:06.717Z,1574.00
2023-04-15T11:55:06.606Z,1576.00
2023-04-15T11:56:06.582Z,1558.00
2023-04-15T11:57:06.586Z,1550.00
2023-04-15T11:58:06.590Z,1562.00
2023-04-15T11:59:06.584Z,1558.00
2023-04-15T12:00:06.597Z,1551.00
2023-04-15T12:01:06.596Z,1555.00
2023-04-15T12:02:06.685Z,1546.00
2023-04-15T12:03:06.753Z,1557.00
2023-04-15T12:04:06.896Z,1557.00
2023-04-15T12:05:06.625Z,1548.00
2023-04-15T12:06:06.588Z,1543.00
2023-04-15T12:07:06.655Z,1553.00
2023-04-15T12:08:06.598Z,1547.00
2023-04-15T12:09:06.601Z,1542.00
2023-04-15T12:10:06.601Z,1547.00
2023-04-15T12:11:06.618Z,1538.00
2023-04-15T12:12:06.605Z,1540.00
2023-04-15T12:13:06.592Z,1542.00
2023-04-15T12:14:06.700Z,1546.00
2023-04-15T12:15:06.690Z,1544.00
2023-04-15T12:16:06.772Z,1556.00
2023-04-15T12:17:06.839Z,1538.00
2023-04-15T12:18:06.904Z,1536.00
2023-04-15T12:19:06.950Z,1537.00
2023-04-15T12:20:06.982Z,1538.00